Time;durP1;ratioP1;P1;durP2;ratioP2;P2;SDS_P1;SDS_P2;PMS_P1;PMS_P2;Temp;Humidity;BMP_temperature;BMP_pressure;BME280_temperature;BME280_humidity;BME280_pressure;Samples;Min_cycle;Max_cycle;Signal;HPM_P1;HPM_P2
2024/01/06 00:00:10;;;;;;;;;;;;;;;;;;5075333;28;1175;-58
2024/01/06 00:02:35;;;;;;;;;;;;;;;;;;5076443;28;1335;-57
2024/01/06 00:05:00;;;;;;;;;;;;;;;;;;5075257;28;1906;-57
2024/01/06 00:07:25;;;;;;;;;;;;;;;;;;5076170;28;903;-57
2024/01/06 00:09:51;;;;;;;;;;;;;;;;;;5075305;28;844;-57
2024/01/06 00:12:18;;;;;;;;;;;;;;;;;;5075231;28;1698;-57
2024/01/06 00:14:45;;;;;;;;;;;;;;;;;;5075702;28;936;-57
2024/01/06 00:17:10;;;;;;;;;;;;;;;;;;5075520;28;903;-57
2024/01/06 00:19:35;;;;;;;;;;;;;;;;;;5075194;28;872;-57
2024/01/06 00:22:01;;;;;;;;;;;;;;;;;;5073591;28;670;-59
2024/01/06 00:24:26;;;;;;;;;;;;;;;;;;5072782;28;1918;-58
2024/01/06 00:26:51;;;;;;;;;;;;;;;;;;5073705;28;857;-57
2024/01/06 00:29:16;;;;;;;;;;;;;;;;;;5073175;28;944;-58
2024/01/06 00:31:42;;;;;;;;;;;;;;;;;;5074381;28;935;-58
2024/01/06 00:34:07;;;;;;;;;;;;;;;;;;5075291;28;995;-58
2024/01/06 00:36:32;;;;;;;;;;;;;;;;;;5075214;28;876;-58
2024/01/06 00:38:58;;;;;;;;;;;;;;;;;;5074955;28;892;-59
2024/01/06 00:41:23;;;;;;;;;;;;;;;;;;5074435;28;1011;-58
2024/01/06 00:43:48;;;;;;;;;;;;;;;;;;5074971;28;1882;-59
2024/01/06 00:46:13;;;;;;;;;;;;;;;;;;5073687;28;899;-57
2024/01/06 00:48:38;;;;;;;;;;;;;;;;;;5074971;28;1003;-58
2024/01/06 00:51:04;;;;;;;;;;;;;;;;;;5074400;28;1009;-59
2024/01/06 00:53:29;;;;;;;;;;;;;;;;;;5073746;28;917;-59
2024/01/06 00:55:54;;;;;;;;;;;;;;;;;;5074460;28;1125;-59
2024/01/06 00:58:20;;;;;;;;;;;;;;;;;;5074353;28;875;-58
2024/01/06 01:00:45;;;;;;;;;;;;;;;;;;5074533;28;912;-58
2024/01/06 01:03:10;;;;;;;;;;;;;;;;;;5074239;28;891;-57
2024/01/06 01:05:36;;;;;;;;;;;;;;;;;;5074500;28;1910;-59
2024/01/06 01:08:01;;;;;;;;;;;;;;;;;;5074363;28;812;-59
2024/01/06 01:10:26;;;;;;;;;;;;;;;;;;5074637;28;833;-59
2024/01/06 01:12:51;;;;;;;;;;;;;;;;;;5074256;28;1015;-59
2024/01/06 01:15:17;;;;;;;;;;;;;;;;;;5074314;28;868;-58
2024/01/06 01:17:42;;;;;;;;;;;;;;;;;;5074574;28;1087;-59
2024/01/06 01:20:08;;;;;;;;;;;;;;;;;;5074692;28;865;-58
2024/01/06 01:22:33;;;;;;;;;;;;;;;;;;5073339;28;889;-58
2024/01/06 01:25:00;;;;;;;;;;;;;;;;;;5073744;28;1913;-62
2024/01/06 01:27:25;;;;;;;;;;;;;;;;;;5074106;28;879;-58
2024/01/06 01:29:52;;;;;;;;;;;;;;;;;;5074477;28;983;-58
2024/01/06 01:32:18;;;;;;;;;;;;;;;;;;5073088;28;767;-57
2024/01/06 01:34:43;;;;;;;;;;;;;;;;;;5074388;28;814;-58
2024/01/06 01:37:08;;;;;;;;;;;;;;;;;;5074559;28;912;-58
2024/01/06 01:39:34;;;;;;;;;;;;;;;;;;5074539;28;908;-58
2024/01/06 01:42:00;;;;;;;;;;;;;;;;;;5074264;28;1198;-57
2024/01/06 01:44:25;;;;;;;;;;;;;;;;;;5074005;28;1898;-57
2024/01/06 01:46:50;;;;;;;;;;;;;;;;;;5074581;28;861;-57
2024/01/06 01:49:16;;;;;;;;;;;;;;;;;;5073380;28;1890;-57
2024/01/06 01:51:44;;;;;;;;;;;;;;;;;;5074027;28;867;-57
2024/01/06 01:54:09;;;;;;;;;;;;;;;;;;5074357;28;863;-57
2024/01/06 01:56:36;;;;;;;;;;;;;;;;;;5074407;28;950;-57
2024/01/06 01:59:03;;;;;;;;;;;;;;;;;;5077812;28;1046;-58
2024/01/06 02:01:29;;;;;;;;;;;;;;;;;;5077657;28;923;-57
2024/01/06 02:03:54;;;;;;;;;;;;;;;;;;5078019;28;1951;-56
2024/01/06 02:06:19;;;;;;;;;;;;;;;;;;5077367;28;1025;-57
2024/01/06 02:08:45;;;;;;;;;;;;;;;;;;5077852;28;979;-57
2024/01/06 02:11:10;;;;;;;;;;;;;;;;;;5078062;28;844;-56
2024/01/06 02:13:36;;;;;;;;;;;;;;;;;;5076546;28;963;-58
2024/01/06 02:16:04;;;;;;;;;;;;;;;;;;5077603;28;888;-58
2024/01/06 02:18:33;;;;;;;;;;;;;;;;;;5077251;28;828;-57
2024/01/06 02:20:59;;;;;;;;;;;;;;;;;;5077411;28;889;-59
2024/01/06 02:23:25;;;;;;;;;;;;;;;;;;5077163;28;896;-57
2024/01/06 02:25:50;;;;;;;;;;;;;;;;;;5077352;28;1981;-57
2024/01/06 02:28:15;;;;;;;;;;;;;;;;;;5076267;28;849;-58
2024/01/06 02:30:41;;;;;;;;;;;;;;;;;;5077355;28;944;-57
2024/01/06 02:33:06;;;;;;;;;;;;;;;;;;5077533;28;909;-57
2024/01/06 02:35:31;;;;;;;;;;;;;;;;;;5076788;28;920;-57
2024/01/06 02:37:56;;;;;;;;;;;;;;;;;;5076677;28;931;-57
2024/01/06 02:40:22;;;;;;;;;;;;;;;;;;5076810;28;1003;-57
2024/01/06 02:42:47;;;;;;;;;;;;;;;;;;5075669;28;821;-57
2024/01/06 02:45:12;;;;;;;;;;;;;;;;;;5076508;28;1971;-57
2024/01/06 02:47:37;;;;;;;;;;;;;;;;;;5083199;28;1211;-57
2024/01/06 02:50:03;;;;;;;;;;;;;;;;;;5075346;28;1437;-57
2024/01/06 02:52:28;;;;;;;;;;;;;;;;;;5078769;28;1413;-57
2024/01/06 02:54:54;;;;;;;;;;;;;;;;;;5076636;28;1246;-57
2024/01/06 02:57:19;;;;;;;;;;;;;;;;;;5077102;28;868;-57
2024/01/06 02:59:45;;;;;;;;;;;;;;;;;;5076156;28;947;-57
2024/01/06 03:02:10;;;;;;;;;;;;;;;;;;5076127;28;911;-57
2024/01/06 03:04:36;;;;;;;;;;;;;;;;;;5075612;28;1969;-57
2024/01/06 03:07:01;;;;;;;;;;;;;;;;;;5074952;28;900;-57
2024/01/06 03:09:26;;;;;;;;;;;;;;;;;;5076203;28;903;-56
2024/01/06 03:11:51;;;;;;;;;;;;;;;;;;5076474;28;767;-58
2024/01/06 03:14:17;;;;;;;;;;;;;;;;;;5075333;28;896;-57
2024/01/06 03:16:42;;;;;;;;;;;;;;;;;;5077037;28;900;-57
2024/01/06 03:19:07;;;;;;;;;;;;;;;;;;5077117;28;876;-56
2024/01/06 03:21:32;;;;;;;;;;;;;;;;;;5076436;28;950;-57
2024/01/06 03:23:58;;;;;;;;;;;;;;;;;;5076642;28;1975;-56
2024/01/06 03:26:23;;;;;;;;;;;;;;;;;;5076879;28;801;-58
2024/01/06 03:28:51;;;;;;;;;;;;;;;;;;5077003;28;856;-58
2024/01/06 03:31:17;;;;;;;;;;;;;;;;;;5076740;28;1404;-58
2024/01/06 03:33:42;;;;;;;;;;;;;;;;;;5076356;28;997;-58
2024/01/06 03:36:08;;;;;;;;;;;;;;;;;;5076288;28;916;-58
2024/01/06 03:38:33;;;;;;;;;;;;;;;;;;5074914;28;1422;-56
2024/01/06 03:40:58;;;;;;;;;;;;;;;;;;5076271;28;796;-56
2024/01/06 03:43:24;;;;;;;;;;;;;;;;;;5075896;28;1001;-57
2024/01/06 03:45:49;;;;;;;;;;;;;;;;;;5075900;28;1894;-57
2024/01/06 03:48:14;;;;;;;;;;;;;;;;;;5076079;28;860;-57
2024/01/06 03:50:39;;;;;;;;;;;;;;;;;;5075479;28;822;-56
2024/01/06 03:53:05;;;;;;;;;;;;;;;;;;5075863;28;856;-57
2024/01/06 03:55:30;;;;;;;;;;;;;;;;;;5075817;28;1046;-57
2024/01/06 03:57:55;;;;;;;;;;;;;;;;;;5075371;28;916;-57
2024/01/06 04:00:21;;;;;;;;;;;;;;;;;;5074874;28;869;-57
2024/01/06 04:02:46;;;;;;;;;;;;;;;;;;5074472;28;830;-57
2024/01/06 04:05:11;;;;;;;;;;;;;;;;;;5074704;28;1910;-57
2024/01/06 04:07:36;;;;;;;;;;;;;;;;;;5074669;28;829;-57
2024/01/06 04:10:02;;;;;;;;;;;;;;;;;;5074686;28;896;-56
2024/01/06 04:12:27;;;;;;;;;;;;;;;;;;5074867;28;931;-58
2024/01/06 04:14:52;;;;;;;;;;;;;;;;;;5074677;28;848;-57
2024/01/06 04:17:18;;;;;;;;;;;;;;;;;;5072944;28;865;-58
2024/01/06 04:19:43;;;;;;;;;;;;;;;;;;5073886;28;876;-57
2024/01/06 04:22:08;;;;;;;;;;;;;;;;;;5073153;28;881;-56
2024/01/06 04:24:37;;;;;;;;;;;;;;;;;;5073888;28;1971;-57
2024/01/06 04:27:02;;;;;;;;;;;;;;;;;;5074024;28;868;-57
2024/01/06 04:29:28;;;;;;;;;;;;;;;;;;5074065;28;999;-59
2024/01/06 04:31:53;;;;;;;;;;;;;;;;;;5073540;28;892;-59
2024/01/06 04:34:18;;;;;;;;;;;;;;;;;;5074109;28;833;-58
2024/01/06 04:36:44;;;;;;;;;;;;;;;;;;5073946;28;833;-57
2024/01/06 04:39:09;;;;;;;;;;;;;;;;;;5073941;28;812;-59
2024/01/06 04:41:34;;;;;;;;;;;;;;;;;;5073972;28;872;-58
2024/01/06 04:44:00;;;;;;;;;;;;;;;;;;5074224;28;1897;-59
2024/01/06 04:46:25;;;;;;;;;;;;;;;;;;5073439;28;991;-59
2024/01/06 04:48:50;;;;;;;;;;;;;;;;;;5072503;28;971;-59
2024/01/06 04:51:16;;;;;;;;;;;;;;;;;;5073633;28;1135;-59
2024/01/06 04:53:41;;;;;;;;;;;;;;;;;;5072864;28;988;-58
2024/01/06 04:56:06;;;;;;;;;;;;;;;;;;5073892;28;884;-58
2024/01/06 04:58:31;;;;;;;;;;;;;;;;;;5033944;28;1138924;-59
2024/01/06 05:00:57;;;;;;;;;;;;;;;;;;5074241;28;952;-59
2024/01/06 05:03:22;;;;;;;;;;;;;;;;;;5074057;28;1077;-57
2024/01/06 05:05:48;;;;;;;;;;;;;;;;;;5074594;28;1975;-58
2024/01/06 05:08:13;;;;;;;;;;;;;;;;;;5074100;28;824;-58
2024/01/06 05:10:38;;;;;;;;;;;;;;;;;;5074257;28;908;-58
2024/01/06 05:13:03;;;;;;;;;;;;;;;;;;5074491;28;1023;-56
2024/01/06 05:15:29;;;;;;;;;;;;;;;;;;5074665;28;893;-57
2024/01/06 05:17:54;;;;;;;;;;;;;;;;;;5074463;28;944;-57
2024/01/06 05:20:19;;;;;;;;;;;;;;;;;;5074303;28;868;-57
2024/01/06 05:22:45;;;;;;;;;;;;;;;;;;5072682;28;1092;-56
2024/01/06 05:25:10;;;;;;;;;;;;;;;;;;5074275;28;1902;-57
2024/01/06 05:27:35;;;;;;;;;;;;;;;;;;5074175;28;988;-57
2024/01/06 05:30:01;;;;;;;;;;;;;;;;;;5074665;28;876;-57
2024/01/06 05:32:26;;;;;;;;;;;;;;;;;;5073726;28;1016;-57
2024/01/06 05:34:52;;;;;;;;;;;;;;;;;;5074080;28;845;-57
2024/01/06 05:37:17;;;;;;;;;;;;;;;;;;5073541;28;837;-57
2024/01/06 05:39:42;;;;;;;;;;;;;;;;;;5074344;28;884;-57
2024/01/06 05:42:10;;;;;;;;;;;;;;;;;;5073914;28;970;-57
2024/01/06 05:44:36;;;;;;;;;;;;;;;;;;5073996;28;1901;-57
2024/01/06 05:47:01;;;;;;;;;;;;;;;;;;5073826;28;948;-57
2024/01/06 05:49:26;;;;;;;;;;;;;;;;;;5073859;28;829;-58
2024/01/06 05:51:52;;;;;;;;;;;;;;;;;;5074046;28;930;-57
2024/01/06 05:54:17;;;;;;;;;;;;;;;;;;5073803;28;986;-57
2024/01/06 05:56:42;;;;;;;;;;;;;;;;;;5073760;28;884;-57
2024/01/06 05:59:07;;;;;;;;;;;;;;;;;;5073721;28;854;-57
2024/01/06 06:01:33;;;;;;;;;;;;;;;;;;5073242;28;891;-57
2024/01/06 06:03:58;;;;;;;;;;;;;;;;;;5073718;28;1902;-57
2024/01/06 06:06:23;;;;;;;;;;;;;;;;;;5073737;28;892;-57
2024/01/06 06:08:48;;;;;;;;;;;;;;;;;;5073971;28;828;-57
2024/01/06 06:11:14;;;;;;;;;;;;;;;;;;5072595;28;816;-56
2024/01/06 06:13:42;;;;;;;;;;;;;;;;;;5073738;28;808;-58
2024/01/06 06:16:13;;;;;;;;;;;;;;;;;;5073458;28;812;-58
2024/01/06 06:18:39;;;;;;;;;;;;;;;;;;5073666;28;879;-56
2024/01/06 06:21:06;;;;;;;;;;;;;;;;;;5072649;28;909;-57
2024/01/06 06:23:31;;;;;;;;;;;;;;;;;;5073734;28;868;-57
2024/01/06 06:25:56;;;;;;;;;;;;;;;;;;5073593;28;1967;-56
2024/01/06 06:28:22;;;;;;;;;;;;;;;;;;5073519;28;868;-57
2024/01/06 06:30:47;;;;;;;;;;;;;;;;;;5073910;28;995;-57
2024/01/06 06:33:12;;;;;;;;;;;;;;;;;;5073810;28;860;-57
2024/01/06 06:35:38;;;;;;;;;;;;;;;;;;5073508;28;876;-57
2024/01/06 06:38:03;;;;;;;;;;;;;;;;;;5073754;28;858;-57
2024/01/06 06:40:28;;;;;;;;;;;;;;;;;;5073764;28;936;-57
2024/01/06 06:42:54;;;;;;;;;;;;;;;;;;5073947;28;868;-57
2024/01/06 06:45:22;;;;;;;;;;;;;;;;;;5076615;28;1886;-58
2024/01/06 06:47:47;;;;;;;;;;;;;;;;;;5077833;28;904;-57
2024/01/06 06:50:12;;;;;;;;;;;;;;;;;;5078194;28;844;-57
2024/01/06 06:52:38;;;;;;;;;;;;;;;;;;5076835;28;877;-59
2024/01/06 06:55:03;;;;;;;;;;;;;;;;;;5076929;28;1010;-58
2024/01/06 06:57:28;;;;;;;;;;;;;;;;;;5076581;28;920;-58
2024/01/06 06:59:54;;;;;;;;;;;;;;;;;;5076789;28;860;-58
2024/01/06 07:02:19;;;;;;;;;;;;;;;;;;5076662;28;1033;-59
2024/01/06 07:04:44;;;;;;;;;;;;;;;;;;5076660;28;1901;-57
2024/01/06 07:07:10;;;;;;;;;;;;;;;;;;5075360;28;899;-59
2024/01/06 07:09:35;;;;;;;;;;;;;;;;;;5077105;28;1017;-56
2024/01/06 07:12:00;;;;;;;;;;;;;;;;;;5076359;28;995;-57
2024/01/06 07:14:26;;;;;;;;;;;;;;;;;;5076365;28;892;-57
2024/01/06 07:16:51;;;;;;;;;;;;;;;;;;5076247;28;858;-57
2024/01/06 07:19:16;;;;;;;;;;;;;;;;;;5075981;28;1066;-56
2024/01/06 07:21:41;;;;;;;;;;;;;;;;;;5072556;28;1297;-57
2024/01/06 07:24:07;;;;;;;;;;;;;;;;;;5073734;28;1956;-57
2024/01/06 07:26:32;;;;;;;;;;;;;;;;;;5073633;28;1320;-57
2024/01/06 07:28:57;;;;;;;;;;;;;;;;;;5073541;28;1156;-57
2024/01/06 07:31:22;;;;;;;;;;;;;;;;;;5083213;28;1215;-61
2024/01/06 07:33:48;;;;;;;;;;;;;;;;;;5083019;28;1034;-57
2024/01/06 07:36:13;;;;;;;;;;;;;;;;;;5077546;28;1155;-57
2024/01/06 07:38:38;;;;;;;;;;;;;;;;;;5072870;28;1160;-57
2024/01/06 07:41:06;;;;;;;;;;;;;;;;;;5074817;28;782;-57
2024/01/06 07:43:32;;;;;;;;;;;;;;;;;;5075784;28;844;-57
2024/01/06 07:45:57;;;;;;;;;;;;;;;;;;5075717;28;1924;-57
2024/01/06 07:48:22;;;;;;;;;;;;;;;;;;5075760;28;1125;-57
2024/01/06 07:50:48;;;;;;;;;;;;;;;;;;5075108;28;924;-58
2024/01/06 07:53:16;;;;;;;;;;;;;;;;;;5075763;28;856;-58
2024/01/06 07:55:42;;;;;;;;;;;;;;;;;;5075768;28;1080;-56
2024/01/06 07:58:07;;;;;;;;;;;;;;;;;;5076335;28;868;-57
2024/01/06 08:00:32;;;;;;;;;;;;;;;;;;5075691;28;955;-57
2024/01/06 08:02:58;;;;;;;;;;;;;;;;;;5075441;28;982;-57
2024/01/06 08:05:23;;;;;;;;;;;;;;;;;;5075257;28;1894;-57
2024/01/06 08:07:49;;;;;;;;;;;;;;;;;;5075557;28;642;-57
2024/01/06 08:10:14;;;;;;;;;;;;;;;;;;5075837;28;856;-57
2024/01/06 08:12:39;;;;;;;;;;;;;;;;;;5075699;28;901;-57
2024/01/06 08:15:07;;;;;;;;;;;;;;;;;;5075819;28;962;-58
2024/01/06 08:17:32;;;;;;;;;;;;;;;;;;5075346;28;999;-57
2024/01/06 08:19:57;;;;;;;;;;;;;;;;;;5075378;28;829;-57
2024/01/06 08:22:23;;;;;;;;;;;;;;;;;;5075315;28;891;-57
2024/01/06 08:24:48;;;;;;;;;;;;;;;;;;5075448;28;1969;-57
2024/01/06 08:27:13;;;;;;;;;;;;;;;;;;5075065;28;1175;-58
2024/01/06 08:29:39;;;;;;;;;;;;;;;;;;5075372;28;884;-58
2024/01/06 08:32:04;;;;;;;;;;;;;;;;;;5075215;28;852;-57
2024/01/06 08:34:29;;;;;;;;;;;;;;;;;;5075263;28;865;-57
2024/01/06 08:36:55;;;;;;;;;;;;;;;;;;5074771;28;881;-57
2024/01/06 08:39:22;;;;;;;;;;;;;;;;;;5074640;28;903;-58
2024/01/06 08:41:47;;;;;;;;;;;;;;;;;;5074608;28;924;-57
2024/01/06 08:44:13;;;;;;;;;;;;;;;;;;5074707;28;1971;-57
2024/01/06 08:46:38;;;;;;;;;;;;;;;;;;5075198;28;892;-57
2024/01/06 08:49:03;;;;;;;;;;;;;;;;;;5073339;28;1236;-58
2024/01/06 08:51:30;;;;;;;;;;;;;;;;;;5074747;28;907;-58
2024/01/06 08:53:56;;;;;;;;;;;;;;;;;;5074750;28;909;-58
2024/01/06 08:56:21;;;;;;;;;;;;;;;;;;5074538;28;920;-58
2024/01/06 08:58:46;;;;;;;;;;;;;;;;;;5074927;28;829;-58
2024/01/06 09:01:13;;;;;;;;;;;;;;;;;;5074621;28;1030;-58
2024/01/06 09:03:38;;;;;;;;;;;;;;;;;;5074690;28;891;-58
2024/01/06 09:06:04;;;;;;;;;;;;;;;;;;5074318;28;1967;-57
2024/01/06 09:08:29;;;;;;;;;;;;;;;;;;5074339;28;872;-57
2024/01/06 09:10:57;;;;;;;;;;;;;;;;;;5074513;28;896;-58
2024/01/06 09:13:23;;;;;;;;;;;;;;;;;;5074035;28;1073;-57
2024/01/06 09:15:48;;;;;;;;;;;;;;;;;;5074478;28;936;-56
2024/01/06 09:18:13;;;;;;;;;;;;;;;;;;5074622;28;857;-58
2024/01/06 09:20:38;;;;;;;;;;;;;;;;;;5075216;28;886;-58
2024/01/06 09:23:04;;;;;;;;;;;;;;;;;;5074826;28;860;-58
2024/01/06 09:25:29;;;;;;;;;;;;;;;;;;5073906;28;1922;-58
2024/01/06 09:27:55;;;;;;;;;;;;;;;;;;5074615;28;892;-58
2024/01/06 09:30:20;;;;;;;;;;;;;;;;;;5074103;28;804;-57
2024/01/06 09:32:45;;;;;;;;;;;;;;;;;;5073910;28;1102;-56
2024/01/06 09:35:10;;;;;;;;;;;;;;;;;;5073972;28;852;-57
2024/01/06 09:37:36;;;;;;;;;;;;;;;;;;5074667;28;993;-57
2024/01/06 09:40:01;;;;;;;;;;;;;;;;;;5074152;28;895;-58
2024/01/06 09:42:26;;;;;;;;;;;;;;;;;;5073876;28;987;-58
2024/01/06 09:44:52;;;;;;;;;;;;;;;;;;5074194;28;1965;-59
2024/01/06 09:47:18;;;;;;;;;;;;;;;;;;5074646;28;1046;-58
2024/01/06 09:49:48;;;;;;;;;;;;;;;;;;5074691;28;959;-58
2024/01/06 09:52:17;;;;;;;;;;;;;;;;;;5074622;28;901;-58
2024/01/06 09:54:46;;;;;;;;;;;;;;;;;;5074725;28;989;-58
2024/01/06 09:57:12;;;;;;;;;;;;;;;;;;5074781;28;806;-58
2024/01/06 09:59:37;;;;;;;;;;;;;;;;;;5075104;28;979;-57
2024/01/06 10:02:04;;;;;;;;;;;;;;;;;;5074416;28;919;-58
2024/01/06 10:04:29;;;;;;;;;;;;;;;;;;5074485;28;1910;-59
2024/01/06 10:06:55;;;;;;;;;;;;;;;;;;5073911;28;868;-59
2024/01/06 10:09:26;;;;;;;;;;;;;;;;;;5074089;28;935;-59
2024/01/06 10:11:54;;;;;;;;;;;;;;;;;;5073806;28;908;-59
2024/01/06 10:14:19;;;;;;;;;;;;;;;;;;5073453;28;880;-57
2024/01/06 10:16:45;;;;;;;;;;;;;;;;;;5073620;28;860;-59
2024/01/06 10:19:10;;;;;;;;;;;;;;;;;;5074621;28;919;-59
2024/01/06 10:21:37;;;;;;;;;;;;;;;;;;5076607;28;889;-58
2024/01/06 10:24:03;;;;;;;;;;;;;;;;;;5077272;28;1971;-58
2024/01/06 10:26:28;;;;;;;;;;;;;;;;;;5077278;28;887;-57
2024/01/06 10:28:54;;;;;;;;;;;;;;;;;;5077074;28;882;-57
2024/01/06 10:31:19;;;;;;;;;;;;;;;;;;5076420;28;1254;-59
2024/01/06 10:33:44;;;;;;;;;;;;;;;;;;5074232;28;1215;-60
2024/01/06 10:36:10;;;;;;;;;;;;;;;;;;5084478;28;1239;-58
2024/01/06 10:38:35;;;;;;;;;;;;;;;;;;5083805;28;1198;-58
2024/01/06 10:41:06;;;;;;;;;;;;;;;;;;5077175;28;1031;-58
2024/01/06 10:43:36;;;;;;;;;;;;;;;;;;5076586;28;954;-58
2024/01/06 10:46:04;;;;;;;;;;;;;;;;;;5076843;28;1956;-59
2024/01/06 10:48:31;;;;;;;;;;;;;;;;;;5076568;28;876;-58
2024/01/06 10:50:58;;;;;;;;;;;;;;;;;;5076683;28;825;-58
2024/01/06 10:53:26;;;;;;;;;;;;;;;;;;5075047;28;1233;-58
2024/01/06 10:55:52;;;;;;;;;;;;;;;;;;5075254;28;953;-57
2024/01/06 10:58:17;;;;;;;;;;;;;;;;;;5076539;28;832;-57
2024/01/06 11:00:43;;;;;;;;;;;;;;;;;;5076739;28;917;-58
2024/01/06 11:03:09;;;;;;;;;;;;;;;;;;5077455;28;867;-56
2024/01/06 11:05:35;;;;;;;;;;;;;;;;;;5076631;28;1957;-57
2024/01/06 11:08:01;;;;;;;;;;;;;;;;;;5074940;28;1273;-56
2024/01/06 11:10:29;;;;;;;;;;;;;;;;;;5076682;28;1039;-58
2024/01/06 11:13:13;;;;;;;;;;;;;;;;;;5076585;28;907;-58
2024/01/06 11:15:39;;;;;;;;;;;;;;;;;;5076818;28;875;-58
2024/01/06 11:18:04;;;;;;;;;;;;;;;;;;5076559;28;862;-58
2024/01/06 11:20:30;;;;;;;;;;;;;;;;;;5076459;28;903;-58
2024/01/06 11:23:15;;;;;;;;;;;;;;;;;;5076344;28;937;-58
2024/01/06 11:25:41;;;;;;;;;;;;;;;;;;5074612;28;1893;-58
2024/01/06 11:28:07;;;;;;;;;;;;;;;;;;5076601;28;891;-57
2024/01/06 11:30:34;;;;;;;;;;;;;;;;;;5074813;28;904;-58
2024/01/06 11:33:00;;;;;;;;;;;;;;;;;;5076852;28;828;-58
2024/01/06 11:35:29;;;;;;;;;;;;;;;;;;5075227;28;991;-59
2024/01/06 11:37:56;;;;;;;;;;;;;;;;;;5076670;28;1035;-58
2024/01/06 11:40:23;;;;;;;;;;;;;;;;;;5076566;28;833;-58
2024/01/06 11:42:58;;;;;;;;;;;;;;;;;;5076332;28;1035;-58
2024/01/06 11:45:27;;;;;;;;;;;;;;;;;;5076054;28;1909;-59
2024/01/06 11:47:59;;;;;;;;;;;;;;;;;;5076267;28;983;-58
2024/01/06 11:50:25;;;;;;;;;;;;;;;;;;5075931;28;906;-59
2024/01/06 11:52:51;;;;;;;;;;;;;;;;;;5076167;28;840;-61
2024/01/06 11:55:18;;;;;;;;;;;;;;;;;;5074287;28;1312;-58
2024/01/06 11:57:43;;;;;;;;;;;;;;;;;;5075376;28;1035;-57
2024/01/06 12:00:08;;;;;;;;;;;;;;;;;;5075402;28;1031;-58
2024/01/06 12:02:34;;;;;;;;;;;;;;;;;;5073277;28;1258;-58
2024/01/06 12:04:59;;;;;;;;;;;;;;;;;;5087415;28;1955;-58
2024/01/06 12:07:25;;;;;;;;;;;;;;;;;;5095413;28;761;-58
2024/01/06 12:09:51;;;;;;;;;;;;;;;;;;5095685;28;970;-58
2024/01/06 12:12:16;;;;;;;;;;;;;;;;;;5095559;28;900;-57
2024/01/06 12:14:45;;;;;;;;;;;;;;;;;;5095377;28;888;-58
2024/01/06 12:17:11;;;;;;;;;;;;;;;;;;5095227;28;937;-57
2024/01/06 12:19:37;;;;;;;;;;;;;;;;;;5095491;28;785;-56
2024/01/06 12:22:02;;;;;;;;;;;;;;;;;;5095156;28;900;-57
2024/01/06 12:24:28;;;;;;;;;;;;;;;;;;5094846;28;1955;-57
2024/01/06 12:26:55;;;;;;;;;;;;;;;;;;5095339;28;827;-57
2024/01/06 12:29:20;;;;;;;;;;;;;;;;;;5095102;28;1032;-58
2024/01/06 12:31:46;;;;;;;;;;;;;;;;;;5095209;28;888;-59
2024/01/06 12:34:11;;;;;;;;;;;;;;;;;;5095613;28;875;-58
2024/01/06 12:36:37;;;;;;;;;;;;;;;;;;5095728;28;912;-58
2024/01/06 12:39:06;;;;;;;;;;;;;;;;;;5095458;28;872;-59
2024/01/06 12:41:33;;;;;;;;;;;;;;;;;;5094198;28;824;-59
2024/01/06 12:43:59;;;;;;;;;;;;;;;;;;5095359;28;897;-58
2024/01/06 12:46:24;;;;;;;;;;;;;;;;;;5095072;28;1951;-58
2024/01/06 12:48:49;;;;;;;;;;;;;;;;;;5093243;28;1269;-59
2024/01/06 12:51:14;;;;;;;;;;;;;;;;;;5094111;28;860;-59
2024/01/06 12:53:40;;;;;;;;;;;;;;;;;;5092901;28;1074;-59
2024/01/06 12:56:07;;;;;;;;;;;;;;;;;;5095334;28;824;-59
2024/01/06 12:58:33;;;;;;;;;;;;;;;;;;5093323;28;1391;-59
2024/01/06 13:00:58;;;;;;;;;;;;;;;;;;5094451;28;943;-57
2024/01/06 13:03:23;;;;;;;;;;;;;;;;;;5094933;28;872;-58
2024/01/06 13:05:49;;;;;;;;;;;;;;;;;;5094561;28;1956;-58
2024/01/06 13:08:14;;;;;;;;;;;;;;;;;;5094704;28;839;-59
2024/01/06 13:10:39;;;;;;;;;;;;;;;;;;5092752;28;1576;-59
2024/01/06 13:13:05;;;;;;;;;;;;;;;;;;5095120;28;864;-59
2024/01/06 13:15:30;;;;;;;;;;;;;;;;;;5094882;28;887;-58
2024/01/06 13:17:56;;;;;;;;;;;;;;;;;;5093395;28;1134;-58
2024/01/06 13:20:22;;;;;;;;;;;;;;;;;;5094847;28;919;-57
2024/01/06 13:22:47;;;;;;;;;;;;;;;;;;5094820;28;832;-58
2024/01/06 13:25:12;;;;;;;;;;;;;;;;;;5093947;28;1901;-58
2024/01/06 13:27:38;;;;;;;;;;;;;;;;;;5094592;28;907;-57
2024/01/06 13:30:04;;;;;;;;;;;;;;;;;;5092807;28;915;-58
2024/01/06 13:32:29;;;;;;;;;;;;;;;;;;5094397;28;921;-58
2024/01/06 13:34:58;;;;;;;;;;;;;;;;;;5094490;28;891;-58
2024/01/06 13:37:23;;;;;;;;;;;;;;;;;;5094344;28;856;-59
2024/01/06 13:39:48;;;;;;;;;;;;;;;;;;5092754;28;1103;-59
2024/01/06 13:42:13;;;;;;;;;;;;;;;;;;5094376;28;931;-58
2024/01/06 13:44:42;;;;;;;;;;;;;;;;;;5094200;28;1902;-59
2024/01/06 13:47:07;;;;;;;;;;;;;;;;;;5093899;28;974;-59
2024/01/06 13:49:32;;;;;;;;;;;;;;;;;;5093785;28;793;-57
2024/01/06 13:51:57;;;;;;;;;;;;;;;;;;5094044;28;868;-57
2024/01/06 13:54:23;;;;;;;;;;;;;;;;;;5093253;28;1229;-58
2024/01/06 13:56:48;;;;;;;;;;;;;;;;;;5093358;28;905;-58
2024/01/06 13:59:13;;;;;;;;;;;;;;;;;;5093341;28;883;-57
2024/01/06 14:01:39;;;;;;;;;;;;;;;;;;5093321;28;935;-58
2024/01/06 14:04:05;;;;;;;;;;;;;;;;;;5093808;28;923;-58
2024/01/06 14:06:30;;;;;;;;;;;;;;;;;;5093330;28;1901;-58
2024/01/06 14:08:56;;;;;;;;;;;;;;;;;;5094133;28;804;-58
2024/01/06 14:11:22;;;;;;;;;;;;;;;;;;5093256;28;1003;-58
2024/01/06 14:13:49;;;;;;;;;;;;;;;;;;5093479;28;892;-58
2024/01/06 14:16:14;;;;;;;;;;;;;;;;;;5093554;28;816;-59
2024/01/06 14:18:39;;;;;;;;;;;;;;;;;;5093112;28;845;-58
2024/01/06 14:21:05;;;;;;;;;;;;;;;;;;5093758;28;856;-58
2024/01/06 14:23:32;;;;;;;;;;;;;;;;;;5093370;28;911;-59
2024/01/06 14:25:57;;;;;;;;;;;;;;;;;;5093245;28;1910;-59
2024/01/06 14:28:23;;;;;;;;;;;;;;;;;;5093328;28;920;-59
2024/01/06 14:30:48;;;;;;;;;;;;;;;;;;5093233;28;923;-59
2024/01/06 14:33:13;;;;;;;;;;;;;;;;;;5093637;28;864;-59
2024/01/06 14:35:39;;;;;;;;;;;;;;;;;;5093906;28;899;-59
2024/01/06 14:38:05;;;;;;;;;;;;;;;;;;5093572;28;934;-59
2024/01/06 14:40:30;;;;;;;;;;;;;;;;;;5093457;28;878;-58
2024/01/06 14:42:57;;;;;;;;;;;;;;;;;;5093626;28;953;-58
2024/01/06 14:45:22;;;;;;;;;;;;;;;;;;5093721;28;1962;-58
2024/01/06 14:47:48;;;;;;;;;;;;;;;;;;5093364;28;970;-58
2024/01/06 14:50:13;;;;;;;;;;;;;;;;;;5093469;28;919;-58
2024/01/06 14:52:38;;;;;;;;;;;;;;;;;;5093708;28;852;-58
2024/01/06 14:55:03;;;;;;;;;;;;;;;;;;5093023;28;992;-57
2024/01/06 14:57:29;;;;;;;;;;;;;;;;;;5093831;28;866;-59
2024/01/06 14:59:54;;;;;;;;;;;;;;;;;;5092551;28;856;-58
2024/01/06 15:02:19;;;;;;;;;;;;;;;;;;5092842;28;900;-58
2024/01/06 15:04:44;;;;;;;;;;;;;;;;;;5094092;28;1946;-58
2024/01/06 15:07:10;;;;;;;;;;;;;;;;;;5097127;28;810;-58
2024/01/06 15:09:38;;;;;;;;;;;;;;;;;;5097572;28;899;-58
2024/01/06 15:12:03;;;;;;;;;;;;;;;;;;5097159;28;942;-58
2024/01/06 15:14:29;;;;;;;;;;;;;;;;;;5096888;28;824;-58
2024/01/06 15:16:54;;;;;;;;;;;;;;;;;;5096987;28;994;-58
2024/01/06 15:19:19;;;;;;;;;;;;;;;;;;5096983;28;856;-58
2024/01/06 15:21:47;;;;;;;;;;;;;;;;;;5096749;28;892;-58
2024/01/06 15:24:13;;;;;;;;;;;;;;;;;;5096476;28;1898;-58
2024/01/06 15:26:40;;;;;;;;;;;;;;;;;;5096198;28;876;-57
2024/01/06 15:29:05;;;;;;;;;;;;;;;;;;5096211;28;1007;-58
2024/01/06 15:31:31;;;;;;;;;;;;;;;;;;5096189;28;1092;-58
2024/01/06 15:33:56;;;;;;;;;;;;;;;;;;5095983;28;872;-57
2024/01/06 15:36:22;;;;;;;;;;;;;;;;;;5096090;28;896;-57
2024/01/06 15:38:48;;;;;;;;;;;;;;;;;;5096094;28;849;-57
2024/01/06 15:41:13;;;;;;;;;;;;;;;;;;5096071;28;1083;-58
2024/01/06 15:43:38;;;;;;;;;;;;;;;;;;5094846;28;1348;-57
2024/01/06 15:46:04;;;;;;;;;;;;;;;;;;5096047;28;1897;-56
2024/01/06 15:48:31;;;;;;;;;;;;;;;;;;5096439;28;974;-58
2024/01/06 15:50:56;;;;;;;;;;;;;;;;;;5095655;28;920;-58
2024/01/06 15:53:22;;;;;;;;;;;;;;;;;;5096061;28;857;-58
2024/01/06 15:55:47;;;;;;;;;;;;;;;;;;5095862;28;1007;-58
2024/01/06 15:58:13;;;;;;;;;;;;;;;;;;5094000;28;994;-58
2024/01/06 16:00:38;;;;;;;;;;;;;;;;;;5096093;28;836;-59
2024/01/06 16:03:05;;;;;;;;;;;;;;;;;;5095740;28;911;-58
2024/01/06 16:05:30;;;;;;;;;;;;;;;;;;5095451;28;1894;-59
2024/01/06 16:07:56;;;;;;;;;;;;;;;;;;5095321;28;892;-57
2024/01/06 16:10:24;;;;;;;;;;;;;;;;;;5094394;28;844;-59
2024/01/06 16:12:51;;;;;;;;;;;;;;;;;;5095495;28;911;-59
2024/01/06 16:15:16;;;;;;;;;;;;;;;;;;5095517;28;903;-59
2024/01/06 16:17:41;;;;;;;;;;;;;;;;;;5095363;28;959;-58
2024/01/06 16:20:07;;;;;;;;;;;;;;;;;;5095752;28;903;-59
2024/01/06 16:22:32;;;;;;;;;;;;;;;;;;5095640;28;877;-58
2024/01/06 16:24:58;;;;;;;;;;;;;;;;;;5095506;28;1887;-57
2024/01/06 16:27:23;;;;;;;;;;;;;;;;;;5094303;28;876;-58
2024/01/06 16:29:48;;;;;;;;;;;;;;;;;;5095446;28;833;-58
2024/01/06 16:32:14;;;;;;;;;;;;;;;;;;5095555;28;967;-58
2024/01/06 16:34:42;;;;;;;;;;;;;;;;;;5095343;28;884;-58
2024/01/06 16:37:07;;;;;;;;;;;;;;;;;;5094352;28;934;-58
2024/01/06 16:39:33;;;;;;;;;;;;;;;;;;5095482;28;824;-59
2024/01/06 16:41:58;;;;;;;;;;;;;;;;;;5095379;28;872;-58
2024/01/06 16:44:23;;;;;;;;;;;;;;;;;;5095215;28;1943;-58
2024/01/06 16:46:49;;;;;;;;;;;;;;;;;;5095170;28;710;-58
2024/01/06 16:49:14;;;;;;;;;;;;;;;;;;5095102;28;851;-59
2024/01/06 16:51:39;;;;;;;;;;;;;;;;;;5095304;28;816;-58
2024/01/06 16:54:05;;;;;;;;;;;;;;;;;;5095495;28;1014;-59
2024/01/06 16:56:30;;;;;;;;;;;;;;;;;;5094702;28;888;-59
2024/01/06 16:58:56;;;;;;;;;;;;;;;;;;5093486;28;1959;-59
2024/01/06 17:01:21;;;;;;;;;;;;;;;;;;5095390;28;841;-59
2024/01/06 17:03:46;;;;;;;;;;;;;;;;;;5095834;28;875;-59